Time;durP1;ratioP1;P1;durP2;ratioP2;P2;SDS_P1;SDS_P2;PMS_P1;PMS_P2;Temp;Humidity;BMP_temperature;BMP_pressure;BME280_temperature;BME280_humidity;BME280_pressure;Samples;Min_cycle;Max_cycle;Signal;HPM_P1;HPM_P2
2021/04/09 00:00:05;;;;;;;16.02;10.68;;;;;;;4.74;51.75;101460.22;10146953;28;20117;-66
2021/04/09 00:05:05;;;;;;;18.42;10.02;;;;;;;4.76;51.07;101450.75;10134974;28;20054;-67
2021/04/09 00:10:03;;;;;;;14.88;10.27;;;;;;;4.76;51.67;101448.03;10142448;28;20158;-67
2021/04/09 00:14:59;;;;;;;21.00;10.68;;;;;;;4.73;51.96;101443.09;10146510;28;20600;-66
2021/04/09 00:19:55;;;;;;;14.18;11.25;;;;;;;4.78;51.06;101423.38;10147992;28;20113;-66
2021/04/09 00:24:51;;;;;;;18.05;10.82;;;;;;;4.87;50.87;101420.97;10142674;28;20655;-67
2021/04/09 00:29:47;;;;;;;18.73;10.35;;;;;;;4.90;51.22;101426.72;10146946;28;20062;-66
2021/04/09 00:34:43;;;;;;;14.70;10.23;;;;;;;4.99;51.04;101416.16;10142610;28;20416;-65
2021/04/09 00:39:39;;;;;;;19.27;11.48;;;;;;;4.97;50.18;101410.22;10142246;28;20424;-65
2021/04/09 00:44:35;;;;;;;17.58;10.73;;;;;;;4.96;50.28;101403.16;10140457;28;20050;-66
2021/04/09 00:49:31;;;;;;;23.90;11.95;;;;;;;4.97;51.05;101404.78;10141524;28;20046;-65
2021/04/09 00:54:28;;;;;;;17.92;10.23;;;;;;;4.95;50.62;101390.69;10136868;28;20543;-66
2021/04/09 00:59:25;;;;;;;18.02;10.15;;;;;;;4.94;50.65;101380.91;10144905;28;20081;-65
2021/04/09 01:04:22;;;;;;;15.82;9.73;;;;;;;5.00;50.58;101363.59;10140202;28;20559;-66
2021/04/09 01:09:18;;;;;;;16.90;10.75;;;;;;;4.93;51.03;101371.16;10140986;28;20058;-66
2021/04/09 01:14:14;;;;;;;16.67;10.02;;;;;;;4.91;51.31;101363.28;10146799;28;20575;-67
2021/04/09 01:19:23;;;;;;;14.43;9.65;;;;;;;5.03;50.76;101344.09;10143820;28;20043;-67
2021/04/09 01:24:33;;;;;;;17.02;10.25;;;;;;;5.05;50.38;101336.53;10135440;28;20108;-67
2021/04/09 01:29:48;;;;;;;16.45;10.73;;;;;;;5.05;50.89;101331.91;10139575;28;20101;-66
2021/04/09 01:34:52;;;;;;;19.08;11.45;;;;;;;4.94;51.21;101319.41;10132589;28;20161;-67
2021/04/09 01:39:53;;;;;;;15.47;10.13;;;;;;;4.84;51.73;101320.16;10136337;28;20104;-68
2021/04/09 01:44:51;;;;;;;15.35;10.00;;;;;;;4.81;51.58;101304.44;10139601;28;20477;-67
2021/04/09 01:49:49;;;;;;;17.75;11.45;;;;;;;4.69;52.03;101301.16;10143860;28;20074;-67
2021/04/09 01:54:47;;;;;;;16.73;10.65;;;;;;;4.73;51.55;101302.25;10138046;28;20482;-66
2021/04/09 01:59:44;;;;;;;15.02;10.35;;;;;;;4.70;52.10;101296.56;10134725;28;20050;-66
2021/04/09 02:04:41;;;;;;;17.52;9.93;;;;;;;4.69;52.71;101273.22;10143114;28;20144;-67
2021/04/09 02:09:38;;;;;;;17.17;10.80;;;;;;;4.70;52.11;101259.44;10136564;28;20042;-67
2021/04/09 02:14:35;;;;;;;18.30;11.25;;;;;;;4.63;52.09;101248.03;10133163;28;20046;-66
2021/04/09 02:19:32;;;;;;;21.42;10.35;;;;;;;4.65;51.92;101240.47;10134221;28;20504;-66
2021/04/09 02:24:28;;;;;;;16.30;10.18;;;;;;;4.63;52.35;101231.78;10139192;28;20046;-67
2021/04/09 02:29:25;;;;;;;18.83;10.60;;;;;;;4.60;51.64;101226.91;10137194;28;20050;-66
2021/04/09 02:34:22;;;;;;;18.67;10.50;;;;;;;4.61;52.18;101233.94;10134694;28;20046;-67
2021/04/09 02:39:21;;;;;;;25.13;10.50;;;;;;;4.66;51.72;101220.41;10138864;28;20069;-67
2021/04/09 02:44:17;;;;;;;16.75;9.70;;;;;;;4.60;52.46;101216.06;10151802;28;20902;-66
2021/04/09 02:49:18;;;;;;;20.67;10.68;;;;;;;4.60;52.33;101205.25;10147309;28;20043;-66
2021/04/09 02:54:16;;;;;;;20.63;11.43;;;;;;;4.58;52.54;101196.56;10144353;28;20173;-67
2021/04/09 02:59:14;;;;;;;18.08;9.82;;;;;;;4.51;52.48;101182.47;10146113;28;20089;-66
2021/04/09 03:04:11;;;;;;;19.40;9.98;;;;;;;4.48;52.83;101180.25;10152357;28;20050;-66
2021/04/09 03:09:08;;;;;;;18.67;10.35;;;;;;;4.39;52.95;101172.66;10146301;28;20054;-67
2021/04/09 03:14:05;;;;;;;23.42;11.38;;;;;;;4.33;53.47;101157.47;10152515;28;20046;-66
2021/04/09 03:19:01;;;;;;;17.48;10.45;;;;;;;4.31;53.04;101165.03;10145685;28;20136;-66
2021/04/09 03:23:57;;;;;;;19.17;10.88;;;;;;;4.32;53.20;101155.84;10142221;28;20593;-68
2021/04/09 03:28:53;;;;;;;18.05;10.85;;;;;;;4.31;53.29;101137.97;10149720;28;20050;-67
2021/04/09 03:33:49;;;;;;;24.67;10.02;;;;;;;4.29;52.66;101128.50;10145828;28;20062;-67
2021/04/09 03:38:45;;;;;;;18.92;10.85;;;;;;;4.30;53.32;101136.34;10133876;28;20046;-67
2021/04/09 03:43:41;;;;;;;22.85;11.23;;;;;;;4.29;53.29;101137.41;10139847;28;20050;-66
2021/04/09 03:48:37;;;;;;;20.85;11.75;;;;;;;4.30;53.10;101122.81;10146378;28;20050;-67
2021/04/09 03:53:33;;;;;;;17.52;10.98;;;;;;;4.37;53.15;101126.09;10148381;28;20046;-68
2021/04/09 03:58:29;;;;;;;20.08;11.55;;;;;;;4.38;53.32;101100.63;10137381;28;20077;-68
2021/04/09 04:03:25;;;;;;;17.45;10.02;;;;;;;4.42;52.85;101099.00;10136898;28;20042;-67
2021/04/09 04:08:21;;;;;;;14.52;10.10;;;;;;;4.38;53.46;101095.22;10147833;28;20061;-67
2021/04/09 04:13:18;;;;;;;18.92;10.00;;;;;;;4.38;52.89;101073.56;10138414;28;20424;-68
2021/04/09 04:18:14;;;;;;;19.42;10.65;;;;;;;4.46;53.18;101069.53;10128648;28;20051;-68
2021/04/09 04:23:10;;;;;;;17.90;9.55;;;;;;;4.37;53.83;101069.22;10130244;28;20063;-67
2021/04/09 04:28:06;;;;;;;18.67;10.50;;;;;;;4.45;53.01;101073.31;10144425;28;20455;-68
2021/04/09 04:33:03;;;;;;;20.10;10.48;;;;;;;4.50;53.20;101076.00;10146291;28;20607;-69
2021/04/09 04:38:00;;;;;;;20.38;10.80;;;;;;;4.52;53.94;101057.59;10130770;28;20046;-69
2021/04/09 04:42:56;;;;;;;19.10;10.82;;;;;;;4.48;53.68;101061.13;10139783;28;20061;-68
2021/04/09 04:47:52;;;;;;;20.02;10.70;;;;;;;4.48;53.76;101072.78;10145053;28;20534;-67
2021/04/09 04:52:48;;;;;;;18.55;10.48;;;;;;;4.53;53.15;101053.81;10146214;28;20054;-67
2021/04/09 04:57:45;;;;;;;24.08;11.90;;;;;;;4.50;53.59;101069.78;10134431;28;20066;-68
2021/04/09 05:02:42;;;;;;;18.30;8.88;;;;;;;4.48;54.15;101055.69;10127593;28;20050;-68
2021/04/09 05:07:38;;;;;;;21.88;10.70;;;;;;;4.50;54.00;101064.38;10126621;28;20057;-68
2021/04/09 05:12:34;;;;;;;18.73;11.05;;;;;;;4.44;55.19;101055.44;10135819;28;20054;-66
2021/04/09 05:17:31;;;;;;;18.55;10.77;;;;;;;4.53;54.51;101058.44;10133411;28;20050;-67
2021/04/09 05:22:27;;;;;;;18.98;10.35;;;;;;;4.55;54.64;101061.66;10130292;28;20068;-66
2021/04/09 05:27:23;;;;;;;19.50;10.38;;;;;;;4.56;54.98;101052.47;10117664;28;20053;-67
2021/04/09 05:32:19;;;;;;;24.42;9.68;;;;;;;4.53;54.66;101063.84;10127410;28;20133;-71
2021/04/09 05:37:16;;;;;;;19.45;10.10;;;;;;;4.58;55.00;101061.16;10130402;28;20701;-68
2021/04/09 05:42:12;;;;;;;20.98;10.43;;;;;;;4.59;55.97;101062.75;10139053;28;20077;-68
2021/04/09 05:47:09;;;;;;;27.25;9.82;;;;;;;4.48;55.72;101061.94;10140122;28;20503;-68
2021/04/09 05:52:07;;;;;;;16.70;9.60;;;;;;;4.61;55.82;101055.19;10134136;28;20053;-68
2021/04/09 05:57:04;;;;;;;15.57;8.60;;;;;;;-146.18;100.00;67994.34;10129390;28;20069;-67
2021/04/09 06:02:00;;;;;;;18.67;9.52;;;;;;;-146.18;100.00;67994.34;10131630;28;20046;-72
2021/04/09 06:06:56;;;;;;;18.85;9.68;;;;;;;-146.18;100.00;67994.34;10123329;28;20072;-67
2021/04/09 06:11:55;;;;;;;23.50;10.55;;;;;;;-146.18;100.00;67994.34;10132919;28;20096;-66
2021/04/09 06:16:52;;;;;;;18.08;10.10;;;;;;;-146.18;100.00;67994.34;10123386;28;20572;-68
2021/04/09 06:21:48;;;;;;;19.23;10.63;;;;;;;-146.18;100.00;67994.34;10145200;28;20104;-66
2021/04/09 06:26:44;;;;;;;17.25;9.95;;;;;;;-146.18;100.00;67994.34;10150875;28;20049;-64
2021/04/09 06:31:41;;;;;;;17.98;10.57;;;;;;;-146.18;100.00;67994.34;10136575;28;20412;-65
2021/04/09 06:36:37;;;;;;;18.25;10.27;;;;;;;-146.18;100.00;67994.34;10145846;28;20136;-66
2021/04/09 06:41:34;;;;;;;17.50;10.50;;;;;;;-146.18;100.00;67994.34;10138075;28;20105;-69
2021/04/09 06:46:30;;;;;;;24.17;12.38;;;;;;;-146.18;100.00;67994.34;10151750;28;20085;-67
2021/04/09 06:51:27;;;;;;;20.77;10.88;;;;;;;-146.18;100.00;67994.34;10151343;28;20048;-64
2021/04/09 06:56:25;;;;;;;17.02;10.30;;;;;;;-146.18;100.00;67994.34;10148195;28;20066;-67
2021/04/09 07:01:24;;;;;;;20.17;10.57;;;;;;;-146.18;100.00;67994.34;10141891;28;20112;-65
2021/04/09 07:06:20;;;;;;;19.90;10.30;;;;;;;-146.18;100.00;67994.34;10140607;28;20465;-65
2021/04/09 07:11:16;;;;;;;24.33;10.45;;;;;;;-146.18;100.00;67994.34;10134791;28;20105;-64
2021/04/09 07:16:13;;;;;;;23.23;10.60;;;;;;;-146.18;100.00;67994.34;10114476;28;20070;-69
2021/04/09 07:21:25;;;;;;;19.27;11.05;;;;;;;-146.18;100.00;67994.34;10128664;28;20097;-67
2021/04/09 07:26:40;;;;;;;19.08;10.57;;;;;;;-146.18;100.00;67994.34;10128071;28;20074;-66
2021/04/09 07:31:36;;;;;;;20.95;11.23;;;;;;;-146.18;100.00;67994.34;10123948;28;20457;-65
2021/04/09 07:36:33;;;;;;;20.88;10.98;;;;;;;-146.18;100.00;67994.34;10131156;28;20101;-67
2021/04/09 07:41:29;;;;;;;17.77;10.52;;;;;;;-146.18;100.00;67994.34;10147988;28;20054;-66
2021/04/09 07:46:27;;;;;;;18.52;10.68;;;;;;;-146.18;100.00;67994.34;10147671;28;20042;-65
2021/04/09 07:51:23;;;;;;;23.10;10.55;;;;;;;-146.18;100.00;67994.34;10141714;28;20046;-66
2021/04/09 07:56:19;;;;;;;20.30;12.25;;;;;;;-146.18;100.00;67994.34;10147007;28;20042;-66
2021/04/09 08:01:21;;;;;;;21.83;10.35;;;;;;;-146.18;100.00;67994.34;10137864;28;20058;-69
2021/04/09 08:06:19;;;;;;;19.13;10.27;;;;;;;-146.18;100.00;67994.34;10150224;28;20059;-66
2021/04/09 08:11:21;;;;;;;19.83;12.32;;;;;;;-146.18;100.00;67994.34;10136761;28;20137;-65
2021/04/09 08:16:30;;;;;;;20.50;11.38;;;;;;;-146.18;100.00;67994.34;10133100;28;20070;-66
2021/04/09 08:21:30;;;;;;;18.77;9.80;;;;;;;-146.18;100.00;67994.34;10133646;28;20652;-67
2021/04/09 08:26:27;;;;;;;19.67;11.95;;;;;;;-146.18;100.00;67994.34;10131492;28;20101;-68
2021/04/09 08:31:24;;;;;;;23.13;10.98;;;;;;;-146.18;100.00;67994.34;10138456;28;20047;-68
2021/04/09 08:36:21;;;;;;;17.60;10.85;;;;;;;-146.18;100.00;67994.34;10137044;28;20452;-67
2021/04/09 08:41:18;;;;;;;19.50;11.07;;;;;;;-146.18;100.00;67994.34;10139155;28;20046;-67
2021/04/09 08:46:15;;;;;;;19.48;11.07;;;;;;;-146.18;100.00;67994.34;10128147;28;20523;-68
2021/04/09 08:51:12;;;;;;;20.08;10.93;;;;;;;-146.18;100.00;67994.34;10136434;28;20050;-67
2021/04/09 08:56:10;;;;;;;19.63;11.40;;;;;;;-146.18;100.00;67994.34;10138054;28;20046;-70
2021/04/09 09:01:12;;;;;;;17.10;10.27;;;;;;;-146.18;100.00;67994.34;10139624;28;20046;-69
2021/04/09 09:06:09;;;;;;;18.65;9.35;;;;;;;-146.18;100.00;67994.34;10139195;28;20137;-71
2021/04/09 09:11:05;;;;;;;15.85;8.85;;;;;;;-146.18;100.00;67994.34;10135236;28;20054;-68
2021/04/09 09:16:11;;;;;;;17.23;9.63;;;;;;;-146.18;100.00;67994.34;10137838;28;20069;-68
2021/04/09 09:21:13;;;;;;;18.50;11.05;;;;;;;-146.18;100.00;67994.34;10137872;28;20100;-67
2021/04/09 09:26:32;;;;;;;15.07;9.57;;;;;;;-146.18;100.00;67994.34;10126981;28;20501;-69
2021/04/09 09:31:30;;;;;;;16.30;9.80;;;;;;;-146.18;100.00;67994.34;10134412;28;20058;-68
2021/04/09 09:36:58;;;;;;;20.60;10.90;;;;;;;-146.18;100.00;67994.34;10128040;28;20061;-67
2021/04/09 09:41:54;;;;;;;17.05;9.48;;;;;;;-146.18;100.00;67994.34;10129767;28;20046;-67
2021/04/09 09:46:58;;;;;;;15.52;10.00;;;;;;;-146.18;100.00;67994.34;10126075;28;20768;-67
2021/04/09 09:51:54;;;;;;;17.83;10.80;;;;;;;-146.18;100.00;67994.34;10122808;28;20408;-67
2021/04/09 09:56:50;;;;;;;17.85;10.13;;;;;;;-146.18;100.00;67994.34;10123946;28;20065;-68
2021/04/09 10:01:55;;;;;;;17.38;9.88;;;;;;;-146.18;100.00;67994.34;10133859;28;20050;-68
2021/04/09 10:06:55;;;;;;;15.52;9.05;;;;;;;-146.18;100.00;67994.34;10126985;28;20141;-67
2021/04/09 10:11:51;;;;;;;13.23;8.27;;;;;;;-146.18;100.00;67994.34;10123348;28;20046;-69
2021/04/09 10:16:47;;;;;;;13.57;8.45;;;;;;;-146.18;100.00;67994.34;10112942;28;20051;-66
2021/04/09 10:21:43;;;;;;;16.25;8.57;;;;;;;-146.18;100.00;67994.34;10121977;28;20081;-67
2021/04/09 10:26:59;;;;;;;23.57;10.57;;;;;;;-146.18;100.00;67994.34;10131031;28;20138;-67
2021/04/09 10:31:58;;;;;;;15.73;9.20;;;;;;;-146.18;100.00;67994.34;10122122;28;20521;-72
2021/04/09 10:36:54;;;;;;;14.77;8.52;;;;;;;-146.18;100.00;67994.34;10130068;28;20054;-72
2021/04/09 10:41:52;;;;;;;13.85;8.05;;;;;;;-146.18;100.00;67994.34;10125791;28;20047;-70
2021/04/09 10:46:54;;;;;;;13.55;8.60;;;;;;;-146.18;100.00;67994.34;10113835;28;20078;-70
2021/04/09 10:51:56;;;;;;;12.35;7.00;;;;;;;-146.18;100.00;67994.34;10119794;28;20129;-72
2021/04/09 10:57:05;;;;;;;21.05;7.50;;;;;;;-146.18;100.00;67994.34;10115533;28;20045;-70
2021/04/09 11:02:02;;;;;;;13.30;8.02;;;;;;;-146.18;100.00;67994.34;10121329;28;20050;-66
2021/04/09 11:07:02;;;;;;;14.38;6.57;;;;;;;-146.18;100.00;67994.34;10138298;28;20066;-69
2021/04/09 11:11:58;;;;;;;12.43;6.53;;;;;;;-146.18;100.00;67994.34;10133592;28;20164;-67
2021/04/09 11:16:57;;;;;;;13.27;6.75;;;;;;;-146.18;100.00;67994.34;10138114;28;20049;-66
2021/04/09 11:22:05;;;;;;;13.10;6.32;;;;;;;-146.18;100.00;67994.34;10137047;28;20124;-67
2021/04/09 11:27:18;;;;;;;13.23;6.15;;;;;;;-146.18;100.00;67994.34;10144844;28;20089;-67
2021/04/09 11:32:18;;;;;;;12.73;6.53;;;;;;;-146.18;100.00;67994.34;10141969;28;20047;-69
2021/04/09 11:37:16;;;;;;;11.15;6.47;;;;;;;-146.18;100.00;67994.34;10143785;28;20093;-70
2021/04/09 11:42:12;;;;;;;14.50;6.38;;;;;;;-146.18;100.00;67994.34;10139153;28;20105;-67
2021/04/09 11:47:17;;;;;;;13.50;7.10;;;;;;;-146.18;100.00;67994.34;10140469;28;20050;-72
2021/04/09 11:52:13;;;;;;;13.88;6.97;;;;;;;-146.18;100.00;67994.34;10138455;28;20078;-69
2021/04/09 11:57:27;;;;;;;13.60;6.80;;;;;;;-146.18;100.00;67994.34;10141748;28;20049;-69
2021/04/09 12:02:28;;;;;;;12.90;7.65;;;;;;;-146.18;100.00;67994.34;10131872;28;20059;-68
2021/04/09 12:07:27;;;;;;;12.85;7.53;;;;;;;-146.18;100.00;67994.34;10127256;28;20394;-70
2021/04/09 12:12:25;;;;;;;12.07;7.28;;;;;;;-146.18;100.00;67994.34;10134999;28;20042;-68
2021/04/09 12:17:23;;;;;;;14.35;7.15;;;;;;;-146.18;100.00;67994.34;10133908;28;20042;-70
2021/04/09 12:22:20;;;;;;;12.63;6.32;;;;;;;-146.18;100.00;67994.34;10129634;28;20101;-69
2021/04/09 12:27:17;;;;;;;15.82;6.93;;;;;;;-146.18;100.00;67994.34;10130447;28;20102;-72
2021/04/09 12:32:14;;;;;;;10.00;6.35;;;;;;;-146.18;100.00;67994.34;10121852;28;20046;-67
2021/04/09 12:37:10;;;;;;;12.10;5.72;;;;;;;-146.18;100.00;67994.34;10132688;28;20082;-68
2021/04/09 12:42:09;;;;;;;9.90;5.50;;;;;;;-146.18;100.00;67994.34;10134365;28;20042;-68
2021/04/09 12:47:05;;;;;;;15.90;7.43;;;;;;;-146.18;100.00;67994.34;10127201;28;20093;-67
2021/04/09 12:52:01;;;;;;;12.93;6.75;;;;;;;-146.18;100.00;67994.34;10136153;28;20492;-67
2021/04/09 12:56:58;;;;;;;10.63;5.38;;;;;;;-146.18;100.00;67994.34;10129933;28;20104;-66
2021/04/09 13:01:55;;;;;;;11.05;5.70;;;;;;;-146.18;100.00;67994.34;10127358;28;20755;-68
2021/04/09 13:06:51;;;;;;;14.25;6.53;;;;;;;-146.18;100.00;67994.34;10130271;28;20611;-67
2021/04/09 13:11:48;;;;;;;17.33;7.88;;;;;;;-146.18;100.00;67994.34;10130187;28;20050;-65
2021/04/09 13:16:45;;;;;;;12.90;6.07;;;;;;;-146.18;100.00;67994.34;10127553;28;20050;-65
2021/04/09 13:21:42;;;;;;;10.50;6.03;;;;;;;-146.18;100.00;67994.34;10130357;28;20046;-72
2021/04/09 13:26:38;;;;;;;36.30;7.57;;;;;;;-146.18;100.00;67994.34;10117910;28;20054;-66
2021/04/09 13:31:34;;;;;;;9.95;6.32;;;;;;;-146.18;100.00;67994.34;10128077;28;20061;-67
2021/04/09 13:36:30;;;;;;;15.00;7.10;;;;;;;-146.18;100.00;67994.34;10137623;28;20046;-68
2021/04/09 13:41:26;;;;;;;13.45;6.43;;;;;;;-146.18;100.00;67994.34;10142866;28;20050;-66
2021/04/09 13:46:22;;;;;;;10.88;6.80;;;;;;;-146.18;100.00;67994.34;10139617;28;20078;-69
2021/04/09 13:51:18;;;;;;;12.45;6.78;;;;;;;-146.18;100.00;67994.34;10130034;28;20792;-71
2021/04/09 13:56:14;;;;;;;10.80;6.03;;;;;;;-146.18;100.00;67994.34;10126178;28;20093;-72
2021/04/09 14:01:10;;;;;;;14.02;6.85;;;;;;;-146.18;100.00;67994.34;10129598;28;20047;-69
2021/04/09 14:06:06;;;;;;;12.80;7.65;;;;;;;-146.18;100.00;67994.34;10125992;28;20039;-67
2021/04/09 14:11:03;;;;;;;11.88;7.38;;;;;;;-146.18;100.00;67994.34;10135441;28;20050;-66
2021/04/09 14:16:11;;;;;;;;;;;;;;;;;;;;;
2021/04/09 14:21:08;;;;;;;9.07;5.70;;;;;;;-146.18;100.00;67994.34;10135659;28;20050;-68
2021/04/09 14:26:06;;;;;;;6.15;3.00;;;;;;;-146.18;100.00;67994.34;10120524;28;20512;-67
2021/04/09 14:31:04;;;;;;;7.55;3.30;;;;;;;-146.18;100.00;67994.34;10132393;28;20050;-67
2021/04/09 14:36:01;;;;;;;5.65;2.08;;;;;;;-146.18;100.00;67994.34;10137705;28;20098;-66
2021/04/09 14:41:13;;;;;;;5.43;1.50;;;;;;;-146.18;100.00;67994.34;10141918;28;20054;-68
2021/04/09 14:46:20;;;;;;;8.00;1.42;;;;;;;-146.18;100.00;67994.34;10143861;28;20046;-67
2021/04/09 14:51:21;;;;;;;8.20;1.85;;;;;;;-146.18;100.00;67994.34;10127473;28;20124;-66
2021/04/09 14:56:19;;;;;;;6.63;1.20;;;;;;;-146.18;100.00;67994.34;10128149;28;20050;-67
2021/04/09 15:01:15;;;;;;;4.30;1.20;;;;;;;-146.18;100.00;67994.34;10142728;28;20468;-67
2021/04/09 15:06:11;;;;;;;10.85;1.15;;;;;;;-146.18;100.00;67994.34;10134339;28;20043;-69
2021/04/09 15:11:08;;;;;;;8.73;1.60;;;;;;;-146.18;100.00;67994.34;10125651;28;20046;-68
2021/04/09 15:19:12;;;;;;;10.65;2.20;;;;;;;;;;10203682;27;20560;-65
2021/04/09 15:24:08;;;;;;;8.63;1.75;;;;;;;;;;10244971;28;20148;-67
2021/04/09 15:30:43;;;;;;;10.30;3.53;;;;;;;6.46;74.06;101132.38;10329875;27;20533;-66
2021/04/09 15:35:39;;;;;;;13.48;2.10;;;;;;;6.10;75.53;101132.56;10271754;28;20466;-65
2021/04/09 15:40:35;;;;;;;8.90;2.03;;;;;;;6.32;75.22;101126.75;10281485;28;20391;-68
2021/04/09 15:45:31;;;;;;;7.53;1.73;;;;;;;6.32;74.60;101120.50;10292981;28;21539;-70
2021/04/09 15:50:27;;;;;;;7.97;1.90;;;;;;;6.18;75.80;101119.50;10252584;28;20053;-69
2021/04/09 15:55:23;;;;;;;7.15;1.60;;;;;;;6.07;76.11;101118.72;10248421;28;20048;-68
2021/04/09 16:00:20;;;;;;;10.77;1.65;;;;;;;6.02;76.75;101127.69;10276328;28;20048;-68
2021/04/09 16:05:16;;;;;;;12.02;2.40;;;;;;;6.00;77.15;101127.16;10240923;28;20049;-66
2021/04/09 16:10:13;;;;;;;14.30;2.10;;;;;;;6.16;75.35;101129.81;10278586;28;20551;-67
2021/04/09 16:15:10;;;;;;;13.85;2.70;;;;;;;5.82;76.38;101133.16;10233135;28;20081;-66
2021/04/09 16:20:10;;;;;;;15.55;3.72;;;;;;;6.15;76.25;101141.75;10237538;28;20054;-69
2021/04/09 16:25:07;;;;;;;12.27;2.17;;;;;;;6.03;75.50;101139.34;10241178;28;20064;-65
2021/04/09 16:30:04;;;;;;;16.17;2.45;;;;;;;6.15;75.01;101141.75;10240200;28;20095;-66
2021/04/09 16:35:00;;;;;;;11.15;2.47;;;;;;;6.21;75.14;101151.53;10290132;28;20218;-69
2021/04/09 16:39:56;;;;;;;10.80;1.90;;;;;;;6.22;73.64;101147.69;10273865;28;20072;-73
2021/04/09 16:44:52;;;;;;;13.75;1.98;;;;;;;6.05;74.17;101165.13;10218259;28;20060;-69
2021/04/09 16:49:48;;;;;;;12.82;2.20;;;;;;;6.12;73.51;101164.84;10276049;28;20125;-67
2021/04/09 16:54:46;;;;;;;11.90;2.10;;;;;;;6.13;72.98;101154.78;10256701;28;20408;-72
2021/04/09 16:59:42;;;;;;;9.25;1.50;;;;;;;5.76;72.94;101172.25;10227559;28;20119;-65
2021/04/09 17:04:38;;;;;;;11.68;3.22;;;;;;;5.90;73.70;101167.88;10266635;28;20049;-67
2021/04/09 17:09:34;;;;;;;14.50;2.75;;;;;;;6.06;72.52;101171.41;10208469;28;20107;-66
2021/04/09 17:14:30;;;;;;;12.32;2.42;;;;;;;5.94;73.25;101173.56;10207760;28;20119;-67
2021/04/09 17:19:27;;;;;;;9.98;1.70;;;;;;;5.69;72.04;101167.91;10206383;28;20079;-72
2021/04/09 17:24:23;;;;;;;10.32;1.85;;;;;;;5.69;73.06;101173.34;10203173;28;20095;-68
2021/04/09 17:29:20;;;;;;;7.45;1.67;;;;;;;5.84;72.71;101175.19;10206062;28;20065;-72
2021/04/09 17:34:16;;;;;;;14.23;4.00;;;;;;;5.87;72.28;101180.09;10201934;28;20045;-65
2021/04/09 17:39:16;;;;;;;12.10;2.00;;;;;;;5.78;72.52;101173.59;10201859;28;20042;-70
2021/04/09 17:44:12;;;;;;;17.52;2.17;;;;;;;5.77;73.25;101173.88;10213153;28;20092;-67
2021/04/09 17:49:08;;;;;;;12.23;2.28;;;;;;;5.70;73.54;101174.97;10207263;28;20458;-65
2021/04/09 17:54:04;;;;;;;16.17;2.45;;;;;;;5.59;73.71;101172.53;10206445;28;20069;-65
2021/04/09 17:59:00;;;;;;;13.80;1.80;;;;;;;5.78;74.05;101175.47;10197458;28;20050;-71
2021/04/09 18:03:56;;;;;;;18.75;2.72;;;;;;;5.66;73.70;101179.31;10187835;28;20146;-71
2021/04/09 18:08:53;;;;;;;14.55;2.45;;;;;;;5.83;73.72;101168.16;10189454;28;20045;-69
2021/04/09 18:13:49;;;;;;;15.20;2.75;;;;;;;5.69;73.03;101172.53;10202681;28;20045;-68
2021/04/09 18:18:45;;;;;;;15.25;2.40;;;;;;;5.88;73.30;101170.06;10219634;28;20064;-68
2021/04/09 18:23:41;;;;;;;12.35;2.22;;;;;;;5.90;73.44;101181.44;10212613;28;20423;-68
2021/04/09 18:28:37;;;;;;;10.07;1.77;;;;;;;5.88;73.81;101178.19;10193468;28;20045;-68
2021/04/09 18:33:34;;;;;;;14.23;2.33;;;;;;;5.93;72.84;101180.88;10234676;28;20041;-68
2021/04/09 18:38:30;;;;;;;11.43;1.90;;;;;;;5.80;73.42;101184.16;10245268;28;20041;-69
2021/04/09 18:43:26;;;;;;;12.90;2.53;;;;;;;5.87;73.71;101196.38;10234566;28;20076;-67
2021/04/09 18:48:22;;;;;;;13.77;2.92;;;;;;;5.90;72.54;101189.59;10228973;28;20499;-68
2021/04/09 18:53:21;;;;;;;11.65;2.22;;;;;;;5.80;72.98;101184.16;10217668;28;20610;-65
2021/04/09 18:58:18;;;;;;;11.13;2.40;;;;;;;5.84;73.63;101182.53;10232822;28;20053;-68
2021/04/09 19:03:14;;;;;;;9.00;2.00;;;;;;;5.89;72.70;101190.66;10229257;28;20100;-69
2021/04/09 19:08:10;;;;;;;14.05;3.08;;;;;;;5.86;73.33;101199.38;10221959;28;20081;-67
2021/04/09 19:13:06;;;;;;;15.45;2.47;;;;;;;5.95;72.94;101203.19;10226083;28;20042;-68
2021/04/09 19:18:03;;;;;;;16.00;3.08;;;;;;;5.89;73.27;101205.06;10224456;28;20057;-69
2021/04/09 19:22:59;;;;;;;15.15;2.58;;;;;;;5.88;73.49;101213.47;10223631;28;20457;-68
2021/04/09 19:27:55;;;;;;;16.25;2.72;;;;;;;5.88;73.89;101203.44;10236697;28;20091;-69
2021/04/09 19:32:51;;;;;;;12.25;3.25;;;;;;;5.88;73.32;101213.47;10211298;28;20069;-66
2021/04/09 19:37:48;;;;;;;10.48;2.35;;;;;;;5.92;73.35;101214.56;10202859;28;20038;-69
2021/04/09 19:42:44;;;;;;;10.85;2.72;;;;;;;5.89;73.98;101221.34;10216762;28;20128;-70
2021/04/09 19:47:41;;;;;;;12.80;3.08;;;;;;;5.87;73.91;101217.25;10214271;28;20046;-68
2021/04/09 19:52:39;;;;;;;14.68;3.97;;;;;;;5.68;74.34;101217.81;10256352;28;20073;-69
2021/04/09 19:57:35;;;;;;;13.10;2.83;;;;;;;5.74;74.39;101212.41;10233952;28;20789;-69
2021/04/09 20:02:31;;;;;;;14.85;2.70;;;;;;;5.81;74.86;101218.38;10233331;28;20041;-69
2021/04/09 20:07:27;;;;;;;11.13;2.60;;;;;;;5.85;74.36;101214.03;10241067;28;20453;-70
2021/04/09 20:12:23;;;;;;;12.15;3.03;;;;;;;5.97;73.60;101222.72;10202811;28;20045;-68
2021/04/09 20:17:20;;;;;;;10.63;3.25;;;;;;;5.92;74.52;101222.72;10240794;28;20036;-69
2021/04/09 20:22:17;;;;;;;12.90;2.47;;;;;;;5.93;73.65;101227.03;10238191;28;20060;-67
2021/04/09 20:27:14;;;;;;;19.50;4.28;;;;;;;5.90;73.70;101224.88;10193521;28;20137;-66
2021/04/09 20:32:10;;;;;;;17.38;3.20;;;;;;;5.91;73.43;101234.63;10201661;28;20045;-70
2021/04/09 20:37:06;;;;;;;12.05;3.05;;;;;;;5.86;73.83;101231.94;10204740;28;20598;-68
2021/04/09 20:42:04;;;;;;;15.57;2.70;;;;;;;5.82;73.74;101230.84;10205352;28;20046;-69
2021/04/09 20:47:00;;;;;;;8.50;2.50;;;;;;;5.86;74.36;101226.50;10203124;28;20045;-68
2021/04/09 20:51:56;;;;;;;11.30;2.63;;;;;;;5.81;74.01;101229.22;10216247;28;20053;-69
2021/04/09 20:56:54;;;;;;;7.47;2.22;;;;;;;5.83;74.56;101240.63;10200764;28;20563;-65
2021/04/09 21:01:50;;;;;;;11.55;3.08;;;;;;;5.84;74.54;101239.53;10198611;28;20042;-67
2021/04/09 21:06:46;;;;;;;17.25;3.80;;;;;;;5.75;74.39;101236.53;10198542;28;20038;-70
2021/04/09 21:11:42;;;;;;;11.90;3.05;;;;;;;5.77;74.85;101233.56;10205997;28;20069;-66
2021/04/09 21:16:38;;;;;;;9.90;2.80;;;;;;;5.72;75.04;101230.88;10197094;28;20478;-67
2021/04/09 21:21:34;;;;;;;12.52;2.25;;;;;;;5.72;74.28;101226.25;10201894;28;20045;-65
2021/04/09 21:26:30;;;;;;;17.42;4.50;;;;;;;5.85;74.37;101235.75;10199845;28;20053;-65
2021/04/09 21:31:26;;;;;;;10.60;2.70;;;;;;;5.84;74.50;101225.97;10205449;28;20045;-65
2021/04/09 21:36:22;;;;;;;18.60;5.07;;;;;;;5.89;73.80;101225.94;10211360;28;20389;-65
2021/04/09 21:41:19;;;;;;;13.35;2.90;;;;;;;5.93;74.31;101227.03;10200470;28;20069;-64
2021/04/09 21:46:15;;;;;;;12.93;2.95;;;;;;;5.86;74.21;101237.34;10205883;28;20053;-66
2021/04/09 21:51:11;;;;;;;15.55;3.70;;;;;;;5.73;74.85;101229.75;10211560;28;20041;-65
2021/04/09 21:56:07;;;;;;;20.02;3.80;;;;;;;5.77;74.77;101233.56;10208955;28;20540;-69
2021/04/09 22:01:03;;;;;;;12.85;4.40;;;;;;;5.70;74.84;101239.28;10195830;28;20041;-66
2021/04/09 22:05:59;;;;;;;17.15;4.80;;;;;;;5.64;75.36;101233.03;10203009;28;20100;-67
2021/04/09 22:10:56;;;;;;;12.80;3.10;;;;;;;5.66;75.68;101236.31;10209300;28;20808;-66
2021/04/09 22:15:52;;;;;;;19.60;4.43;;;;;;;5.73;75.26;101227.06;10204730;28;20100;-66
2021/04/09 22:20:49;;;;;;;15.65;3.97;;;;;;;5.60;75.70;101226.53;10206067;28;20132;-67
2021/04/09 22:25:47;;;;;;;12.25;3.45;;;;;;;5.62;75.58;101229.78;10208747;28;20049;-67
2021/04/09 22:30:43;;;;;;;16.17;4.40;;;;;;;5.60;75.76;101239.28;10207361;28;20420;-67